Time;durP1;ratioP1;P1;durP2;ratioP2;P2;SDS_P1;SDS_P2;PMS_P1;PMS_P2;Temp;Humidity;BMP_temperature;BMP_pressure;BME280_temperature;BME280_humidity;BME280_pressure;Samples;Min_cycle;Max_cycle;Signal;HPM_P1;HPM_P2
2024/01/28 00:02:21;;;;;;;0.10;0.10;;;;;;;13.16;65.95;101067.25;7358035;19;20137;-64
2024/01/28 00:04:47;;;;;;;0.10;0.10;;;;;;;13.04;66.19;101054.47;7353673;19;20581;-63
2024/01/28 00:07:12;;;;;;;0.10;0.10;;;;;;;13.22;66.21;101074.13;7357467;19;20018;-63
2024/01/28 00:09:37;;;;;;;0.10;0.10;;;;;;;13.24;66.13;101067.09;7353626;19;20025;-63
2024/01/28 00:12:03;;;;;;;0.10;0.10;;;;;;;13.12;66.24;101041.16;7362602;19;20033;-63
2024/01/28 00:14:28;;;;;;;0.15;0.15;;;;;;;13.15;66.11;101039.31;7360213;19;20884;-63
2024/01/28 00:16:54;;;;;;;0.10;0.10;;;;;;;13.19;66.29;101045.34;7359334;19;20125;-63
2024/01/28 00:19:19;;;;;;;0.20;0.20;;;;;;;13.17;66.06;101041.88;7354075;19;20012;-63
2024/01/28 00:21:45;;;;;;;0.10;0.10;;;;;;;13.17;66.25;101040.13;7355436;19;20015;-63
2024/01/28 00:24:10;;;;;;;0.10;0.10;;;;;;;13.35;66.27;101056.28;7352411;19;20015;-63
2024/01/28 00:26:39;;;;;;;0.10;0.10;;;;;;;13.30;66.10;101051.16;7358781;19;20024;-63
2024/01/28 00:29:06;;;;;;;0.10;0.10;;;;;;;13.24;66.01;101038.25;7359011;19;20018;-64
2024/01/28 00:31:31;;;;;;;0.10;0.10;;;;;;;13.30;66.14;101037.19;7361139;19;20506;-63
2024/01/28 00:33:57;;;;;;;0.10;0.10;;;;;;;13.28;65.93;101028.50;7356217;19;20082;-62
2024/01/28 00:36:22;;;;;;;0.10;0.10;;;;;;;13.38;65.90;101036.09;7356588;19;20006;-63
2024/01/28 00:38:47;;;;;;;0.10;0.10;;;;;;;13.42;66.08;101047.31;7356216;19;20009;-63
2024/01/28 00:41:28;;;;;;;0.10;0.10;;;;;;;13.45;66.29;101042.84;7352310;19;20031;-63
2024/01/28 00:43:54;;;;;;;0.20;0.20;;;;;;;13.25;65.77;101005.84;7358891;19;20096;-63
2024/01/28 00:46:20;;;;;;;0.10;0.10;;;;;;;13.32;66.19;101010.00;7365486;19;20538;-63
2024/01/28 00:48:46;;;;;;;0.10;0.10;;;;;;;13.37;66.37;101017.75;7360520;19;20816;-63
2024/01/28 00:51:12;;;;;;;0.10;0.10;;;;;;;13.32;66.02;100999.50;7358414;19;21185;-63
2024/01/28 00:53:38;;;;;;;0.10;0.10;;;;;;;13.48;66.23;101020.91;7357431;19;20019;-63
2024/01/28 00:56:04;;;;;;;0.20;0.20;;;;;;;13.37;66.34;101007.25;7355827;19;20018;-63
2024/01/28 00:58:29;;;;;;;0.10;0.10;;;;;;;13.49;66.08;101017.41;7359363;19;20026;-63
2024/01/28 01:00:55;;;;;;;0.10;0.10;;;;;;;13.53;66.57;100994.53;7357453;19;20058;-63
2024/01/28 01:03:20;;;;;;;0.20;0.20;;;;;;;13.52;66.35;100998.94;7358245;19;20007;-63
2024/01/28 01:05:46;;;;;;;0.10;0.10;;;;;;;13.54;66.24;100997.13;7358961;19;20929;-63
2024/01/28 01:08:12;;;;;;;0.10;0.10;;;;;;;13.50;66.59;100992.88;7355602;19;20089;-63
2024/01/28 01:10:37;;;;;;;0.10;0.10;;;;;;;13.55;66.33;100993.59;7359262;19;20494;-63
2024/01/28 01:13:03;;;;;;;0.13;0.13;;;;;;;13.58;66.59;100985.63;7352074;19;20474;-63
2024/01/28 01:15:29;;;;;;;0.10;0.10;;;;;;;13.59;66.58;100997.00;7353373;19;21772;-63
2024/01/28 01:17:56;;;;;;;0.10;0.10;;;;;;;13.61;66.57;100985.53;7353159;19;20849;-62
2024/01/28 01:20:21;;;;;;;0.10;0.10;;;;;;;13.40;66.62;100954.72;7357221;19;20015;-63
2024/01/28 01:22:47;;;;;;;0.20;0.20;;;;;;;13.50;66.64;100971.88;7364469;19;20005;-63
2024/01/28 01:25:13;;;;;;;0.10;0.10;;;;;;;13.61;66.79;100977.66;7364162;19;20018;-63
2024/01/28 01:27:38;;;;;;;0.20;0.20;;;;;;;13.61;66.66;100980.28;7360882;19;20045;-63
2024/01/28 01:30:05;;;;;;;0.10;0.10;;;;;;;13.53;66.91;100961.28;7370043;19;20019;-63
2024/01/28 01:32:30;;;;;;;0.10;0.10;;;;;;;13.57;66.86;100970.78;7366018;19;20025;-63
2024/01/28 01:34:56;;;;;;;0.10;0.10;;;;;;;13.29;66.76;100906.97;7367284;19;20003;-63
2024/01/28 01:37:21;;;;;;;0.10;0.10;;;;;;;13.62;66.72;100955.75;7368974;19;20264;-63
2024/01/28 01:39:47;;;;;;;0.10;0.10;;;;;;;13.47;66.49;100928.22;7358976;19;20786;-63
2024/01/28 01:42:12;;;;;;;0.10;0.10;;;;;;;13.49;66.50;100933.44;7363644;19;20760;-63
2024/01/28 01:44:37;;;;;;;0.10;0.10;;;;;;;13.47;66.68;100919.50;7362555;19;20011;-62
2024/01/28 01:47:03;;;;;;;0.10;0.10;;;;;;;13.63;66.89;100946.97;7366151;19;20014;-62
2024/01/28 01:49:29;;;;;;;0.10;0.10;;;;;;;13.61;67.11;100942.69;7347459;19;20032;-63
2024/01/28 01:51:55;;;;;;;0.20;0.20;;;;;;;13.55;66.97;100933.25;7363346;19;20022;-63
2024/01/28 01:54:21;;;;;;;0.20;0.20;;;;;;;13.58;67.08;100938.38;7362800;19;20747;-63
2024/01/28 01:56:46;;;;;;;0.10;0.10;;;;;;;13.59;66.91;100940.13;7366665;19;20018;-63
2024/01/28 01:59:12;;;;;;;0.13;0.13;;;;;;;13.55;67.33;100933.25;7364573;19;20033;-62
2024/01/28 02:01:39;;;;;;;0.20;0.20;;;;;;;13.57;66.88;100934.03;7362480;19;20014;-63
2024/01/28 02:04:04;;;;;;;0.10;0.10;;;;;;;13.56;66.78;100932.34;7366024;19;20625;-63
2024/01/28 02:06:30;;;;;;;0.10;0.10;;;;;;;13.53;66.88;100932.41;7365787;19;20023;-63
2024/01/28 02:08:55;;;;;;;0.10;0.10;;;;;;;13.55;66.66;100933.25;7363164;19;20048;-63
2024/01/28 02:11:22;;;;;;;0.10;0.10;;;;;;;13.44;66.78;100909.97;7361223;19;20067;-63
2024/01/28 02:13:47;;;;;;;0.10;0.10;;;;;;;13.57;66.63;100927.94;7358396;19;20032;-63
2024/01/28 02:16:13;;;;;;;0.10;0.10;;;;;;;13.55;66.41;100922.75;7363582;19;20503;-63
2024/01/28 02:18:38;;;;;;;0.10;0.10;;;;;;;13.55;66.22;100917.50;7361928;19;20019;-63
2024/01/28 02:21:04;;;;;;;0.10;0.10;;;;;;;13.55;66.10;100917.50;7363493;19;20018;-63
2024/01/28 02:23:29;;;;;;;0.10;0.10;;;;;;;13.54;66.14;100909.69;7365799;19;20011;-63
2024/01/28 02:25:54;;;;;;;0.10;0.10;;;;;;;13.47;66.33;100894.13;7358085;19;20010;-63
2024/01/28 02:28:21;;;;;;;0.10;0.10;;;;;;;13.45;65.86;100880.22;7367407;19;20408;-62
2024/01/28 02:30:46;;;;;;;0.10;0.10;;;;;;;13.55;65.92;100899.13;7356405;19;20025;-63
2024/01/28 02:33:12;;;;;;;0.10;0.10;;;;;;;13.57;65.92;100897.31;7365007;19;20046;-62
2024/01/28 02:35:37;;;;;;;0.10;0.10;;;;;;;13.57;65.99;100899.94;7359079;19;20077;-63
2024/01/28 02:38:03;;;;;;;0.10;0.10;;;;;;;13.57;65.82;100894.69;7366653;19;20006;-63
2024/01/28 02:40:30;;;;;;;0.20;0.20;;;;;;;13.48;65.84;100884.47;7369792;19;20015;-63
2024/01/28 02:42:56;;;;;;;0.10;0.10;;;;;;;13.57;65.69;100876.31;7364217;19;20014;-64
2024/01/28 02:45:22;;;;;;;0.10;0.10;;;;;;;13.58;65.84;100880.66;7366074;19;20018;-63
2024/01/28 02:47:47;;;;;;;0.10;0.10;;;;;;;13.52;65.41;100869.50;7366309;19;20014;-63
2024/01/28 02:50:13;;;;;;;0.10;0.10;;;;;;;13.60;65.63;100884.09;7367768;19;20232;-62
2024/01/28 02:52:38;;;;;;;0.10;0.10;;;;;;;13.55;65.59;100872.91;7367508;19;20045;-62
2024/01/28 02:55:04;;;;;;;0.15;0.15;;;;;;;13.60;65.51;100863.13;7368830;19;20025;-62
2024/01/28 02:57:30;;;;;;;0.10;0.10;;;;;;;13.60;65.31;100850.00;7363108;19;20011;-63
2024/01/28 02:59:55;;;;;;;0.20;0.20;;;;;;;13.62;65.16;100850.78;7363060;19;20572;-63
2024/01/28 03:02:21;;;;;;;0.20;0.20;;;;;;;13.63;65.38;100847.25;7365736;19;20045;-63
2024/01/28 03:04:46;;;;;;;0.10;0.10;;;;;;;13.48;65.18;100832.00;7366677;19;20018;-62
2024/01/28 03:07:12;;;;;;;0.10;0.10;;;;;;;13.62;65.24;100835.03;7365035;19;20150;-63
2024/01/28 03:09:38;;;;;;;0.10;0.10;;;;;;;13.62;65.31;100835.03;7365215;19;20033;-62
2024/01/28 03:12:04;;;;;;;0.10;0.10;;;;;;;13.63;65.54;100836.75;7367688;19;20003;-62
2024/01/28 03:14:30;;;;;;;0.10;0.10;;;;;;;13.65;65.35;100827.09;7358302;19;20113;-63
2024/01/28 03:16:55;;;;;;;0.10;0.10;;;;;;;13.63;65.27;100813.13;7368280;19;20040;-63
2024/01/28 03:19:20;;;;;;;0.15;0.15;;;;;;;13.63;64.98;100820.16;7365055;19;20457;-63
2024/01/28 03:21:46;;;;;;;0.10;0.10;;;;;;;13.47;64.86;100785.72;7365903;19;20002;-63
2024/01/28 03:24:11;;;;;;;0.20;0.20;;;;;;;13.58;65.42;100783.56;7364222;19;20514;-63
2024/01/28 03:26:37;;;;;;;0.20;0.20;;;;;;;13.63;65.33;100788.66;7359210;19;20014;-63
2024/01/28 03:29:04;;;;;;;0.10;0.10;;;;;;;13.58;64.98;100786.19;7366940;19;20026;-63
2024/01/28 03:31:29;;;;;;;0.10;0.10;;;;;;;13.61;65.59;100791.34;7357726;19;20090;-63
2024/01/28 03:33:55;;;;;;;0.20;0.20;;;;;;;13.60;65.25;100784.41;7365769;19;20524;-63
2024/01/28 03:36:20;;;;;;;0.10;0.10;;;;;;;13.51;65.25;100761.09;7358484;19;20015;-63
2024/01/28 03:38:46;;;;;;;0.15;0.15;;;;;;;13.56;64.97;100768.81;7368260;19;20487;-63
2024/01/28 03:41:15;;;;;;;0.10;0.10;;;;;;;13.61;65.49;100754.63;7365522;19;20098;-63
2024/01/28 03:43:42;;;;;;;0.10;0.10;;;;;;;13.55;65.26;100754.84;7363657;19;20018;-63
2024/01/28 03:46:09;;;;;;;0.10;0.10;;;;;;;13.57;65.39;100750.38;7366044;19;20028;-63
2024/01/28 03:48:35;;;;;;;0.10;0.10;;;;;;;13.55;65.28;100738.25;7360409;19;20002;-63
2024/01/28 03:51:00;;;;;;;0.10;0.10;;;;;;;13.56;65.00;100725.06;7364244;19;20634;-63
2024/01/28 03:53:26;;;;;;;0.20;0.20;;;;;;;13.54;65.33;100729.50;7364261;19;20045;-63
2024/01/28 03:55:51;;;;;;;0.10;0.10;;;;;;;13.32;65.47;100694.41;7365087;19;20010;-63
2024/01/28 03:58:16;;;;;;;0.20;0.20;;;;;;;13.54;65.26;100737.38;7363031;19;20014;-63
2024/01/28 04:00:42;;;;;;;0.20;0.20;;;;;;;13.18;65.20;100682.63;7363659;19;20041;-63
2024/01/28 04:03:08;;;;;;;0.20;0.20;;;;;;;13.57;65.75;100716.28;7355241;19;20360;-63
2024/01/28 04:05:34;;;;;;;0.10;0.10;;;;;;;13.57;65.50;100704.91;7361013;19;20082;-63
2024/01/28 04:08:00;;;;;;;0.20;0.20;;;;;;;13.56;65.32;100704.06;7364091;19;20031;-62
2024/01/28 04:10:26;;;;;;;0.10;0.10;;;;;;;13.57;65.46;100712.78;7366304;19;20022;-63
2024/01/28 04:12:51;;;;;;;0.15;0.15;;;;;;;13.55;65.36;100722.50;7362210;19;20003;-63
2024/01/28 04:15:17;;;;;;;0.10;0.10;;;;;;;13.41;65.39;100688.84;7361778;19;20034;-63
2024/01/28 04:17:42;;;;;;;0.10;0.10;;;;;;;13.53;65.13;100725.16;7363744;19;20025;-63
2024/01/28 04:20:08;;;;;;;0.20;0.20;;;;;;;13.55;65.36;100741.72;7367685;19;20022;-62
2024/01/28 04:22:34;;;;;;;0.10;0.10;;;;;;;13.53;65.11;100688.41;7362788;19;20037;-62
2024/01/28 04:25:00;;;;;;;0.10;0.10;;;;;;;13.43;65.20;100719.41;7364273;19;20090;-63
2024/01/28 04:27:25;;;;;;;0.10;0.10;;;;;;;13.51;65.14;100706.00;7336347;19;20006;-63
2024/01/28 04:29:50;;;;;;;0.10;0.10;;;;;;;13.50;65.52;100712.16;7364049;19;20112;-63
2024/01/28 04:32:16;;;;;;;0.20;0.20;;;;;;;13.43;65.61;100695.78;7361346;19;20011;-62
2024/01/28 04:34:41;;;;;;;0.10;0.10;;;;;;;13.47;65.30;100704.38;7365063;19;20017;-63
2024/01/28 04:37:07;;;;;;;0.10;0.10;;;;;;;13.46;65.46;100692.19;7360636;19;20031;-63
2024/01/28 04:39:34;;;;;;;0.20;0.20;;;;;;;13.35;65.52;100670.72;7363749;19;20014;-63
2024/01/28 04:42:00;;;;;;;0.10;0.10;;;;;;;13.38;65.51;100673.22;7364516;19;20014;-63
2024/01/28 04:44:26;;;;;;;0.10;0.10;;;;;;;13.24;65.94;100655.34;7361783;19;20439;-63
2024/01/28 04:46:52;;;;;;;0.10;0.10;;;;;;;13.41;65.55;100684.47;7365042;19;20002;-63
2024/01/28 04:49:17;;;;;;;0.20;0.20;;;;;;;13.39;65.95;100677.59;7359417;19;20045;-63
2024/01/28 04:51:43;;;;;;;0.10;0.10;;;;;;;13.24;65.92;100648.34;7358361;19;20014;-62
2024/01/28 04:54:08;;;;;;;0.10;0.10;;;;;;;13.36;65.90;100667.19;7367314;19;20021;-62
2024/01/28 04:56:34;;;;;;;0.10;0.10;;;;;;;13.26;66.11;100657.91;7371041;19;20740;-62
2024/01/28 04:59:02;;;;;;;0.15;0.15;;;;;;;13.23;65.84;100659.75;7360112;19;20029;-62
2024/01/28 05:01:27;;;;;;;0.10;0.10;;;;;;;13.29;66.19;100670.94;7364957;19;20006;-62
2024/01/28 05:03:53;;;;;;;0.10;0.10;;;;;;;13.27;66.34;100649.13;7366265;19;20094;-63
2024/01/28 05:06:18;;;;;;;0.20;0.20;;;;;;;13.25;66.23;100657.06;7366941;19;21218;-62
2024/01/28 05:08:43;;;;;;;0.10;0.10;;;;;;;13.23;66.76;100654.50;7368952;19;20033;-62
2024/01/28 05:11:09;;;;;;;0.13;0.13;;;;;;;13.16;66.81;100642.47;7369356;19;20003;-63
2024/01/28 05:13:35;;;;;;;0.15;0.15;;;;;;;13.20;66.76;100641.44;7371367;19;20037;-63
2024/01/28 05:16:00;;;;;;;0.10;0.10;;;;;;;13.17;66.91;100633.69;7364142;19;20020;-63
2024/01/28 05:18:26;;;;;;;0.10;0.10;;;;;;;13.19;66.91;100633.66;7367138;19;20090;-63
2024/01/28 05:20:51;;;;;;;0.10;0.10;;;;;;;13.17;66.66;100628.44;7368546;19;20011;-62
2024/01/28 05:23:17;;;;;;;0.20;0.20;;;;;;;13.15;66.59;100630.28;7372822;19;20011;-63
2024/01/28 05:25:42;;;;;;;0.20;0.20;;;;;;;13.15;66.88;100626.78;7374303;19;20007;-63
2024/01/28 05:28:08;;;;;;;0.10;0.10;;;;;;;13.09;67.08;100604.25;7371358;19;20003;-63
2024/01/28 05:30:34;;;;;;;0.17;0.17;;;;;;;13.12;66.89;100603.28;7375927;19;20023;-63
2024/01/28 05:33:00;;;;;;;0.15;0.15;;;;;;;13.11;67.12;100606.81;7364504;19;20011;-63
2024/01/28 05:35:25;;;;;;;0.10;0.10;;;;;;;13.09;67.30;100614.75;7368139;19;20069;-63
2024/01/28 05:37:51;;;;;;;0.17;0.17;;;;;;;13.01;67.21;100606.28;7365824;19;20010;-63
2024/01/28 05:40:17;;;;;;;0.10;0.10;;;;;;;12.92;67.16;100596.09;7369741;19;20015;-63
2024/01/28 05:42:43;;;;;;;0.10;0.10;;;;;;;13.03;67.09;100614.97;7365818;19;20018;-63
2024/01/28 05:45:09;;;;;;;0.10;0.10;;;;;;;13.05;67.50;100623.63;7357267;19;20045;-63
2024/01/28 05:47:34;;;;;;;0.10;0.10;;;;;;;13.03;67.24;100604.47;7367186;19;20074;-63
2024/01/28 05:50:00;;;;;;;0.10;0.10;;;;;;;13.02;66.97;100602.75;7368418;19;20032;-63
2024/01/28 05:52:25;;;;;;;0.10;0.10;;;;;;;13.02;67.20;100602.75;7360195;19;20033;-63
2024/01/28 05:54:51;;;;;;;0.10;0.10;;;;;;;12.88;67.21;100584.03;7371468;19;20029;-63
2024/01/28 05:57:17;;;;;;;0.20;0.20;;;;;;;12.98;67.26;100590.69;7362268;19;20015;-63
2024/01/28 05:59:42;;;;;;;0.10;0.10;;;;;;;12.87;67.38;100577.06;7369224;19;20592;-63
2024/01/28 06:02:07;;;;;;;0.10;0.10;;;;;;;12.94;67.90;100595.16;7367282;19;20041;-63
2024/01/28 06:04:33;;;;;;;0.20;0.20;;;;;;;12.91;67.92;100579.53;7362993;19;20014;-63
2024/01/28 06:07:01;;;;;;;0.17;0.17;;;;;;;12.91;67.87;100581.28;7366452;19;20512;-63
2024/01/28 06:09:27;;;;;;;0.10;0.10;;;;;;;12.78;68.00;100566.91;7368048;19;20010;-63
2024/01/28 06:11:52;;;;;;;0.10;0.10;;;;;;;12.73;68.10;100567.06;7369920;19;20029;-62
2024/01/28 06:14:18;;;;;;;0.10;0.10;;;;;;;12.76;67.99;100574.81;7366456;19;20015;-64
2024/01/28 06:16:43;;;;;;;0.10;0.10;;;;;;;12.81;68.62;100588.63;7356347;19;20018;-62
2024/01/28 06:19:09;;;;;;;0.10;0.10;;;;;;;12.60;68.66;100553.50;7369202;19;20486;-62
2024/01/28 06:21:34;;;;;;;0.13;0.13;;;;;;;12.79;68.39;100590.44;7367224;19;20602;-63
2024/01/28 06:23:59;;;;;;;0.13;0.13;;;;;;;12.77;68.61;100591.38;7369142;19;20010;-63
2024/01/28 06:26:25;;;;;;;0.20;0.20;;;;;;;12.75;68.69;100577.50;7365315;19;20020;-63
2024/01/28 06:28:50;;;;;;;0.20;0.20;;;;;;;12.72;68.57;100563.59;7359136;19;20018;-63
2024/01/28 06:31:16;;;;;;;0.13;0.13;;;;;;;12.66;68.32;100555.91;7359141;19;20025;-63
2024/01/28 06:33:43;;;;;;;0.10;0.10;;;;;;;12.62;67.90;100541.25;7363943;19;20576;-63
2024/01/28 06:36:08;;;;;;;0.17;0.17;;;;;;;12.66;67.65;100542.81;7358862;19;20734;-62
2024/01/28 06:38:34;;;;;;;0.10;0.10;;;;;;;12.66;67.98;100540.19;7366223;19;20018;-62
2024/01/28 06:41:00;;;;;;;0.13;0.13;;;;;;;12.64;67.67;100544.66;7372744;19;20010;-63
2024/01/28 06:43:25;;;;;;;0.10;0.10;;;;;;;12.61;67.72;100522.94;7369337;19;20395;-63
2024/01/28 06:45:54;;;;;;;0.10;0.10;;;;;;;12.56;67.82;100504.75;7369563;19;20018;-63
2024/01/28 06:48:19;;;;;;;0.20;0.20;;;;;;;12.67;67.66;100523.59;7362161;19;20010;-63
2024/01/28 06:50:46;;;;;;;0.15;0.15;;;;;;;12.70;68.38;100528.72;7367132;19;20018;-63
2024/01/28 06:53:12;;;;;;;0.10;0.10;;;;;;;12.71;67.67;100529.56;7363556;19;20093;-63
2024/01/28 06:55:37;;;;;;;0.10;0.10;;;;;;;12.73;67.34;100522.53;7365478;19;20098;-63
2024/01/28 06:58:03;;;;;;;0.10;0.10;;;;;;;12.75;67.51;100506.75;7355982;19;20027;-62
2024/01/28 07:00:28;;;;;;;0.10;0.10;;;;;;;12.79;67.50;100506.59;7366613;19;20010;-63
2024/01/28 07:02:53;;;;;;;0.10;0.10;;;;;;;12.65;67.38;100473.00;7371333;19;20002;-63
2024/01/28 07:05:22;;;;;;;0.13;0.13;;;;;;;12.86;66.97;100496.75;7331737;19;20093;-63
2024/01/28 07:07:48;;;;;;;0.10;0.10;;;;;;;12.85;66.60;100495.88;7365668;19;20017;-62
2024/01/28 07:10:14;;;;;;;0.10;0.10;;;;;;;12.64;66.62;100471.28;7364525;19;20014;-63
2024/01/28 07:12:40;;;;;;;0.13;0.13;;;;;;;12.93;66.96;100521.84;7358984;19;20011;-63
2024/01/28 07:15:05;;;;;;;0.10;0.10;;;;;;;12.96;66.78;100511.22;7367702;19;20052;-63
2024/01/28 07:17:31;;;;;;;0.10;0.10;;;;;;;13.00;66.27;100515.47;7366623;19;20006;-63
2024/01/28 07:19:57;;;;;;;0.10;0.10;;;;;;;12.92;66.49;100501.75;7345839;19;20006;-62
2024/01/28 07:22:23;;;;;;;0.10;0.10;;;;;;;12.98;66.30;100497.16;7362344;19;20029;-63
2024/01/28 07:24:49;;;;;;;0.10;0.10;;;;;;;12.92;66.42;100480.78;7364601;19;20018;-63
2024/01/28 07:27:14;;;;;;;0.15;0.15;;;;;;;12.95;66.08;100485.94;7366764;19;20006;-62
2024/01/28 07:29:40;;;;;;;0.10;0.10;;;;;;;12.83;66.23;100460.19;7360346;19;20035;-63
2024/01/28 07:32:05;;;;;;;0.20;0.20;;;;;;;12.99;66.34;100482.28;7361309;19;20014;-62
2024/01/28 07:34:31;;;;;;;0.10;0.10;;;;;;;13.05;66.30;100491.69;7372355;19;20470;-63
2024/01/28 07:36:57;;;;;;;0.10;0.10;;;;;;;13.05;66.12;100494.31;7361703;19;20449;-63
2024/01/28 07:39:23;;;;;;;0.20;0.20;;;;;;;13.04;66.19;100490.84;7364900;19;20029;-63
2024/01/28 07:41:48;;;;;;;0.10;0.10;;;;;;;13.03;66.11;100497.00;7365098;19;20813;-63
2024/01/28 07:44:14;;;;;;;0.20;0.20;;;;;;;13.03;66.02;100497.00;7364457;19;20727;-63
2024/01/28 07:46:39;;;;;;;0.10;0.10;;;;;;;12.95;65.78;100475.44;7364492;19;20040;-62
2024/01/28 07:49:05;;;;;;;0.10;0.10;;;;;;;12.88;66.22;100468.72;7365104;19;20011;-62
2024/01/28 07:51:30;;;;;;;0.10;0.10;;;;;;;12.89;66.10;100459.94;7363645;19;20010;-63
2024/01/28 07:53:56;;;;;;;0.13;0.13;;;;;;;12.98;66.37;100470.97;7363776;19;20082;-63
2024/01/28 07:56:21;;;;;;;0.10;0.10;;;;;;;12.95;66.29;100471.06;7360077;19;20070;-63
2024/01/28 07:58:47;;;;;;;0.10;0.10;;;;;;;12.93;66.35;100466.81;7359179;19;20027;-63
2024/01/28 08:01:12;;;;;;;0.20;0.20;;;;;;;12.88;66.50;100459.09;7362302;19;20023;-62
2024/01/28 08:03:38;;;;;;;0.10;0.10;;;;;;;12.94;66.19;100464.13;7363487;19;20097;-63
2024/01/28 08:06:04;;;;;;;0.20;0.20;;;;;;;12.93;66.46;100466.81;7355970;19;20010;-63
2024/01/28 08:08:30;;;;;;;0.13;0.13;;;;;;;12.89;66.22;100455.56;7362467;19;20027;-63
2024/01/28 08:10:56;;;;;;;0.10;0.10;;;;;;;12.90;66.51;100466.91;7355356;19;20038;-62
2024/01/28 08:13:22;;;;;;;0.13;0.13;;;;;;;12.90;66.15;100461.66;7355946;19;20003;-63
2024/01/28 08:15:48;;;;;;;0.10;0.10;;;;;;;12.88;66.33;100458.25;7362076;19;20797;-63
2024/01/28 08:18:13;;;;;;;0.20;0.20;;;;;;;12.73;65.84;100438.69;7364593;19;20011;-63
2024/01/28 08:20:39;;;;;;;0.10;0.10;;;;;;;12.86;66.00;100444.31;7362096;19;20352;-63
2024/01/28 08:23:04;;;;;;;0.20;0.20;;;;;;;12.81;66.00;100456.75;7362238;19;20010;-62
2024/01/28 08:25:30;;;;;;;0.13;0.13;;;;;;;12.83;66.54;100454.94;7357834;19;20010;-63
2024/01/28 08:27:56;;;;;;;0.10;0.10;;;;;;;12.82;66.23;100455.81;7365446;19;20017;-63
2024/01/28 08:30:23;;;;;;;0.10;0.10;;;;;;;12.81;65.70;100443.63;7361225;19;20018;-63
2024/01/28 08:32:49;;;;;;;0.10;0.10;;;;;;;12.70;65.68;100439.63;7369909;19;20015;-62
2024/01/28 08:35:15;;;;;;;0.15;0.15;;;;;;;12.76;65.72;100437.72;7356711;19;20470;-63
2024/01/28 08:37:40;;;;;;;0.10;0.10;;;;;;;12.64;65.69;100418.91;7368907;19;20014;-63
2024/01/28 08:40:08;;;;;;;0.10;0.10;;;;;;;12.84;65.78;100456.63;7371668;19;20074;-63
2024/01/28 08:42:34;;;;;;;0.10;0.10;;;;;;;12.82;65.43;100442.72;7367288;19;20026;-63
2024/01/28 08:45:00;;;;;;;0.10;0.10;;;;;;;12.84;65.47;100436.53;7368356;19;20372;-63
2024/01/28 08:47:25;;;;;;;0.15;0.15;;;;;;;12.69;65.34;100395.16;7367494;19;20853;-63
2024/01/28 08:49:51;;;;;;;0.10;0.10;;;;;;;12.72;65.46;100406.41;7374224;19;20002;-62
2024/01/28 08:52:17;;;;;;;0.10;0.10;;;;;;;12.87;65.30;100425.91;7360434;19;20043;-62
2024/01/28 08:54:45;;;;;;;0.13;0.13;;;;;;;12.91;65.39;100413.56;7369699;19;20025;-63
2024/01/28 08:57:11;;;;;;;0.10;0.10;;;;;;;12.92;65.01;100402.16;7364726;19;20481;-62
2024/01/28 08:59:37;;;;;;;0.10;0.10;;;;;;;12.93;65.35;100399.50;7367527;19;20014;-63
2024/01/28 09:02:03;;;;;;;0.10;0.10;;;;;;;12.95;65.37;100388.97;7362951;19;20021;-63
2024/01/28 09:04:28;;;;;;;0.20;0.20;;;;;;;12.99;64.99;100390.56;7366258;19;20050;-63
2024/01/28 09:06:54;;;;;;;0.10;0.10;;;;;;;13.03;64.98;100415.75;7364587;19;20094;-62
2024/01/28 09:09:19;;;;;;;0.10;0.10;;;;;;;13.05;64.65;100381.59;7358206;19;20003;-63
2024/01/28 09:11:45;;;;;;;0.20;0.20;;;;;;;13.05;64.35;100385.06;7362887;19;20011;-63
2024/01/28 09:14:10;;;;;;;0.10;0.10;;;;;;;13.09;64.69;100394.53;7360187;19;20634;-63
2024/01/28 09:16:36;;;;;;;0.10;0.10;;;;;;;13.13;64.85;100396.13;7362673;19;20010;-63
2024/01/28 09:19:03;;;;;;;0.10;0.10;;;;;;;13.03;64.33;100368.56;7372532;19;20007;-63
2024/01/28 09:21:29;;;;;;;;;;;;;;;13.24;65.45;100388.75;7368642;19;20017;-63
2024/01/28 09:23:55;;;;;;;0.10;0.10;;;;;;;13.15;63.66;100378.56;7365045;19;19914;-63
2024/01/28 09:26:20;;;;;;;0.10;0.10;;;;;;;13.22;63.73;100394.94;7365299;19;21023;-63
2024/01/28 09:28:46;;;;;;;0.10;0.10;;;;;;;13.13;63.94;100372.53;7367124;19;20007;-63
2024/01/28 09:31:12;;;;;;;0.10;0.10;;;;;;;13.30;63.57;100397.28;7337288;19;20014;-63
2024/01/28 09:33:37;;;;;;;0.10;0.10;;;;;;;13.24;63.64;100378.25;7367119;19;20006;-62
2024/01/28 09:36:03;;;;;;;0.10;0.10;;;;;;;13.39;64.06;100408.28;7368979;19;20010;-63
2024/01/28 09:38:28;;;;;;;0.10;0.10;;;;;;;13.41;63.86;100416.94;7367627;19;20037;-63
2024/01/28 09:40:54;;;;;;;0.10;0.10;;;;;;;13.45;64.47;100410.66;7369440;19;20018;-63
2024/01/28 09:43:29;;;;;;;0.20;0.20;;;;;;;13.48;63.85;100401.78;7365503;19;20034;-63
2024/01/28 09:45:55;;;;;;;0.10;0.10;;;;;;;13.52;63.91;100385.03;7361596;19;20036;-63
2024/01/28 09:48:21;;;;;;;0.10;0.10;;;;;;;13.53;63.85;100384.09;7368808;19;20041;-63
2024/01/28 09:50:46;;;;;;;0.03;0.03;;;;;;;13.55;63.92;100395.41;7374185;19;20529;-63
2024/01/28 09:53:15;;;;;;;0.10;0.10;;;;;;;13.47;63.80;100371.25;7371042;19;20089;-63
2024/01/28 09:55:41;;;;;;;0.10;0.10;;;;;;;13.57;63.32;100390.09;7363727;19;20029;-63
2024/01/28 09:58:07;;;;;;;0.10;0.10;;;;;;;13.51;63.34;100370.19;7370883;19;20018;-63
2024/01/28 10:00:33;;;;;;;0.10;0.10;;;;;;;13.64;63.20;100384.56;7363944;19;20010;-62
2024/01/28 10:02:59;;;;;;;0.10;0.10;;;;;;;13.63;63.22;100390.69;7366648;19;20007;-63
2024/01/28 10:05:24;;;;;;;0.20;0.20;;;;;;;13.70;62.81;100376.44;7376034;19;20050;-63
2024/01/28 10:08:04;;;;;;;0.20;0.20;;;;;;;13.79;63.44;100379.56;7363012;19;20014;-63
2024/01/28 10:10:33;;;;;;;0.10;0.10;;;;;;;13.81;62.63;100375.13;7364815;19;20010;-62
2024/01/28 10:12:59;;;;;;;0.10;0.10;;;;;;;13.71;62.04;100346.63;7363763;19;20003;-62
2024/01/28 10:15:28;;;;;;;0.10;0.10;;;;;;;13.86;62.14;100346.91;7351368;19;20037;-63
2024/01/28 10:17:53;;;;;;;0.10;0.10;;;;;;;13.83;61.50;100310.28;7367790;19;20027;-63
2024/01/28 10:20:23;;;;;;;0.10;0.10;;;;;;;13.87;61.18;100309.25;7367688;19;20855;-63
2024/01/28 10:22:51;;;;;;;0.10;0.10;;;;;;;13.96;61.13;100319.38;7360586;19;20015;-62
2024/01/28 10:25:17;;;;;;;0.10;0.10;;;;;;;13.99;60.69;100311.38;7337547;19;20789;-62
2024/01/28 10:27:44;;;;;;;0.10;0.10;;;;;;;14.03;60.84;100315.53;7359582;19;20033;-63
2024/01/28 10:30:11;;;;;;;0.10;0.10;;;;;;;14.05;59.93;100308.47;7363801;19;20022;-63
2024/01/28 10:32:37;;;;;;;0.20;0.20;;;;;;;13.99;59.96;100298.25;7374972;19;20702;-62
2024/01/28 10:35:10;;;;;;;0.10;0.10;;;;;;;14.00;59.31;100297.31;7372588;19;20509;-63
2024/01/28 10:37:35;;;;;;;0.17;0.17;;;;;;;14.17;59.18;100294.78;7371720;19;20037;-63
2024/01/28 10:40:07;;;;;;;0.10;0.10;;;;;;;14.14;59.26;100266.06;7374275;19;20018;-62
2024/01/28 10:42:40;;;;;;;0.10;0.10;;;;;;;14.26;59.44;100286.53;7372978;19;20039;-63
2024/01/28 10:45:07;;;;;;;0.10;0.10;;;;;;;14.28;57.94;100284.66;7367113;19;20031;-63
2024/01/28 10:47:36;;;;;;;0.20;0.20;;;;;;;14.32;57.84;100268.78;7364002;19;20015;-63
2024/01/28 10:50:05;;;;;;;0.20;0.20;;;;;;;14.25;58.14;100258.56;7363330;19;20042;-62
2024/01/28 10:52:32;;;;;;;0.10;0.10;;;;;;;14.28;57.03;100268.91;7357229;19;20026;-63
2024/01/28 10:54:59;;;;;;;0.10;0.10;;;;;;;14.43;57.35;100279.66;7368622;19;20358;-62
2024/01/28 10:57:27;;;;;;;0.20;0.20;;;;;;;14.43;56.89;100271.75;7365124;19;20017;-63
2024/01/28 10:59:54;;;;;;;0.20;0.20;;;;;;;14.48;57.17;100277.69;7365964;19;20021;-63
2024/01/28 11:02:20;;;;;;;0.10;0.10;;;;;;;14.36;57.51;100263.31;7365299;19;20412;-62
2024/01/28 11:04:47;;;;;;;0.20;0.20;;;;;;;14.55;57.62;100292.28;7367458;19;20118;-63
2024/01/28 11:07:16;;;;;;;0.10;0.10;;;;;;;14.57;57.16;100300.09;7361527;19;20611;-62
2024/01/28 11:09:42;;;;;;;0.20;0.20;;;;;;;14.50;57.39;100304.78;7364882;19;20949;-63
2024/01/28 11:12:09;;;;;;;0.15;0.15;;;;;;;14.58;57.21;100330.69;7364804;19;20010;-62
2024/01/28 11:14:34;;;;;;;0.10;0.10;;;;;;;14.54;57.40;100316.81;7354181;19;20041;-63
2024/01/28 11:17:00;;;;;;;0.20;0.20;;;;;;;14.49;57.78;100310.94;7361899;19;20772;-63
2024/01/28 11:19:30;;;;;;;0.10;0.10;;;;;;;14.60;58.26;100313.94;7362743;19;20694;-63